Time;durP1;ratioP1;P1;durP2;ratioP2;P2;SDS_P1;SDS_P2;PMS_P1;PMS_P2;Temp;Humidity;BMP_temperature;BMP_pressure;BME280_temperature;BME280_humidity;BME280_pressure;Samples;Min_cycle;Max_cycle;Signal;HPM_P1;HPM_P2
2023/12/03 00:01:40;;;;;;;20.47;11.40;;;;;;;;;;10487780;28;20582;-66
2023/12/03 00:06:40;;;;;;;15.95;9.70;;;;;;;;;;10487564;28;20811;-68
2023/12/03 00:11:40;;;;;;;21.90;11.83;;;;;;;;;;10487720;28;20225;-67
2023/12/03 00:16:41;;;;;;;22.60;13.00;;;;;;;;;;10483500;28;20710;-67
2023/12/03 00:21:41;;;;;;;24.30;12.87;;;;;;;;;;10487257;28;20241;-66
2023/12/03 00:26:41;;;;;;;23.63;13.00;;;;;;;;;;10487407;28;20202;-67
2023/12/03 00:31:41;;;;;;;24.40;13.33;;;;;;;;;;10486876;28;20480;-67
2023/12/03 00:36:41;;;;;;;25.97;13.37;;;;;;;;;;10483529;28;20528;-67
2023/12/03 00:41:42;;;;;;;27.83;14.80;;;;;;;;;;10486539;28;20225;-68
2023/12/03 00:46:42;;;;;;;28.00;14.60;;;;;;;;;;10487231;28;20279;-67
2023/12/03 00:51:42;;;;;;;26.23;14.80;;;;;;;;;;10487007;28;20226;-67
2023/12/03 00:56:42;;;;;;;31.17;14.13;;;;;;;;;;10482792;28;20195;-67
2023/12/03 01:01:42;;;;;;;25.23;13.43;;;;;;;;;;10487205;28;20471;-68
2023/12/03 01:06:43;;;;;;;22.40;12.07;;;;;;;;;;10492373;28;20194;-67
2023/12/03 01:11:43;;;;;;;32.47;13.77;;;;;;;;;;10491501;28;20305;-67
2023/12/03 01:16:45;;;;;;;26.63;14.97;;;;;;;;;;10492753;28;20563;-67
2023/12/03 01:21:45;;;;;;;23.40;13.47;;;;;;;;;;10493692;28;21490;-68
2023/12/03 01:26:45;;;;;;;29.40;14.60;;;;;;;;;;10500240;28;20195;-69
2023/12/03 01:31:45;;;;;;;28.87;15.40;;;;;;;;;;10490099;28;20230;-68
2023/12/03 01:36:45;;;;;;;28.73;15.30;;;;;;;;;;10496422;28;20657;-69
2023/12/03 01:41:46;;;;;;;24.53;13.77;;;;;;;;;;10493547;28;20252;-68
2023/12/03 01:46:46;;;;;;;29.47;13.87;;;;;;;;;;10493014;28;20191;-68
2023/12/03 01:51:47;;;;;;;23.37;12.40;;;;;;;;;;10488603;28;20214;-68
2023/12/03 01:56:48;;;;;;;20.23;11.67;;;;;;;;;;10492526;28;20586;-68
2023/12/03 02:01:48;;;;;;;22.43;11.13;;;;;;;;;;10492301;28;20213;-68
2023/12/03 02:06:49;;;;;;;20.97;11.63;;;;;;;;;;10491508;28;20190;-68
2023/12/03 02:11:49;;;;;;;21.27;11.53;;;;;;;;;;10488011;28;20265;-68
2023/12/03 02:16:49;;;;;;;20.70;11.27;;;;;;;;;;10490638;28;20438;-68
2023/12/03 02:21:49;;;;;;;20.73;11.03;;;;;;;;;;10491242;28;20507;-68
2023/12/03 02:26:49;;;;;;;23.77;12.63;;;;;;;;;;10491087;28;20278;-68
2023/12/03 02:31:49;;;;;;;22.43;11.90;;;;;;;;;;10486913;28;20242;-69
2023/12/03 02:36:50;;;;;;;23.57;12.80;;;;;;;;;;10490502;28;20178;-68
2023/12/03 02:41:50;;;;;;;21.07;11.23;;;;;;;;;;10490308;28;20224;-68
2023/12/03 02:46:50;;;;;;;22.77;12.47;;;;;;;;;;10486560;28;20240;-68
2023/12/03 02:51:50;;;;;;;17.57;9.83;;;;;;;;;;10490081;28;20701;-69
2023/12/03 02:56:50;;;;;;;21.00;11.50;;;;;;;;;;10490159;28;20644;-68
2023/12/03 03:01:51;;;;;;;24.13;12.80;;;;;;;;;;10489678;28;20463;-69
2023/12/03 03:06:51;;;;;;;23.65;12.52;;;;;;;;;;10485850;28;20670;-69
2023/12/03 03:11:52;;;;;;;22.87;11.40;;;;;;;;;;10489342;28;20245;-68
2023/12/03 03:16:52;;;;;;;24.10;12.47;;;;;;;;;;10489884;28;20526;-68
2023/12/03 03:21:52;;;;;;;22.17;12.20;;;;;;;;;;10489375;28;20273;-68
2023/12/03 03:26:53;;;;;;;24.47;13.17;;;;;;;;;;10485504;28;20673;-69
2023/12/03 03:31:53;;;;;;;22.27;11.00;;;;;;;;;;10488929;28;20234;-69
2023/12/03 03:36:53;;;;;;;25.17;13.47;;;;;;;;;;10488787;28;20251;-68
2023/12/03 03:41:53;;;;;;;20.00;11.97;;;;;;;;;;10488585;28;20204;-68
2023/12/03 03:46:53;;;;;;;21.73;13.33;;;;;;;;;;10465976;28;20212;-68
2023/12/03 03:51:54;;;;;;;26.90;14.27;;;;;;;;;;10451738;28;20291;-68
2023/12/03 03:56:54;;;;;;;22.43;10.60;;;;;;;;;;10449707;28;20202;-69
2023/12/03 04:01:54;;;;;;;26.15;14.55;;;;;;;;;;10451304;28;20620;-68
2023/12/03 04:06:54;;;;;;;28.53;16.03;;;;;;;;;;10454281;28;20237;-69
2023/12/03 04:11:54;;;;;;;25.43;14.03;;;;;;;;;;10450908;28;20720;-69
2023/12/03 04:16:57;;;;;;;28.70;14.63;;;;;;;;;;10451089;28;20309;-69
2023/12/03 04:21:57;;;;;;;23.97;12.37;;;;;;;;;;10452572;28;20218;-69
2023/12/03 04:26:57;;;;;;;24.47;14.17;;;;;;;;;;10450501;28;20199;-68
2023/12/03 04:31:57;;;;;;;23.83;13.73;;;;;;;;;;10449806;28;20316;-68
2023/12/03 04:36:57;;;;;;;22.97;13.47;;;;;;;;;;10450536;28;20193;-68
2023/12/03 04:41:57;;;;;;;19.63;11.73;;;;;;;;;;10460371;28;20344;-68
2023/12/03 04:46:57;;;;;;;17.70;11.17;;;;;;;;;;10458768;28;20198;-68
2023/12/03 04:51:58;;;;;;;17.97;11.13;;;;;;;;;;10458449;28;20222;-68
2023/12/03 04:56:58;;;;;;;18.03;11.23;;;;;;;;;;10458058;28;20188;-68
2023/12/03 05:01:58;;;;;;;19.20;11.00;;;;;;;;;;10460912;28;20305;-68
2023/12/03 05:06:58;;;;;;;18.47;11.17;;;;;;;;;;10457806;28;20191;-67
2023/12/03 05:11:58;;;;;;;18.77;10.60;;;;;;;;;;10457665;28;20714;-68
2023/12/03 05:16:58;;;;;;;17.50;9.60;;;;;;;;;;10457269;28;20191;-68
2023/12/03 05:21:59;;;;;;;17.33;9.87;;;;;;;;;;10460310;28;20206;-68
2023/12/03 05:26:59;;;;;;;14.13;8.73;;;;;;;;;;10457686;28;20192;-68
2023/12/03 05:31:59;;;;;;;20.63;11.80;;;;;;;;;;10457250;28;20238;-68
2023/12/03 05:36:59;;;;;;;18.40;11.33;;;;;;;;;;10456676;28;20664;-68
2023/12/03 05:41:59;;;;;;;22.03;11.33;;;;;;;;;;10458951;28;20291;-69
2023/12/03 05:47:00;;;;;;;15.37;10.00;;;;;;;;;;10456654;28;20277;-69
2023/12/03 05:52:00;;;;;;;21.30;11.67;;;;;;;;;;10454451;28;20223;-69
2023/12/03 05:57:00;;;;;;;22.43;10.93;;;;;;;;;;10459092;28;20183;-69
2023/12/03 06:02:01;;;;;;;19.50;10.73;;;;;;;;;;10455594;28;20293;-69
2023/12/03 06:07:01;;;;;;;19.00;10.43;;;;;;;;;;10455583;28;20184;-69
2023/12/03 06:12:01;;;;;;;21.13;11.13;;;;;;;;;;10455203;28;20223;-69
2023/12/03 06:17:02;;;;;;;23.73;11.00;;;;;;;;;;10457841;28;20184;-69
2023/12/03 06:22:02;;;;;;;21.07;11.50;;;;;;;;;;10461912;28;20223;-69
2023/12/03 06:27:02;;;;;;;23.77;13.00;;;;;;;;;;10454780;28;20183;-69
2023/12/03 06:32:03;;;;;;;17.60;10.70;;;;;;;;;;10454328;28;20493;-68
2023/12/03 06:37:04;;;;;;;28.52;17.30;;;;;;;;;;10457189;28;20180;-68
2023/12/03 06:42:05;;;;;;;25.27;13.50;;;;;;;;;;10449933;28;20223;-68
2023/12/03 06:47:06;;;;;;;22.47;12.53;;;;;;;;;;10453822;28;20256;-67
2023/12/03 06:52:06;;;;;;;23.53;11.70;;;;;;;;;;10453523;28;20764;-68
2023/12/03 06:57:06;;;;;;;21.87;11.23;;;;;;;;;;10456359;28;20221;-68
2023/12/03 07:02:07;;;;;;;23.13;11.97;;;;;;;;;;10452867;28;20457;-68
2023/12/03 07:07:07;;;;;;;23.90;12.80;;;;;;;;;;10453045;28;20192;-68
2023/12/03 07:12:07;;;;;;;18.43;10.73;;;;;;;;;;10452693;28;20311;-68
2023/12/03 07:17:08;;;;;;;22.90;11.17;;;;;;;;;;10455411;28;20252;-67
2023/12/03 07:22:08;;;;;;;24.13;11.97;;;;;;;;;;10452261;28;20684;-67
2023/12/03 07:27:08;;;;;;;24.30;12.57;;;;;;;;;;10452206;28;20512;-68
2023/12/03 07:32:08;;;;;;;25.63;14.20;;;;;;;;;;10454392;28;20261;-67
2023/12/03 07:37:08;;;;;;;27.37;14.47;;;;;;;;;;10452018;28;20180;-67
2023/12/03 07:42:09;;;;;;;24.60;13.13;;;;;;;;;;10451731;28;20222;-67
2023/12/03 07:47:10;;;;;;;23.47;13.00;;;;;;;;;;10451585;28;20680;-68
2023/12/03 07:52:10;;;;;;;28.67;13.97;;;;;;;;;;10454491;28;20223;-68
2023/12/03 07:57:10;;;;;;;24.13;13.93;;;;;;;;;;10451100;28;20283;-67
2023/12/03 08:02:10;;;;;;;27.03;13.57;;;;;;;;;;10451153;28;20212;-67
2023/12/03 08:07:11;;;;;;;24.30;13.50;;;;;;;;;;10450774;28;20537;-67
2023/12/03 08:12:11;;;;;;;25.97;12.40;;;;;;;;;;10453477;28;20484;-67
2023/12/03 08:17:12;;;;;;;23.77;12.13;;;;;;;;;;10458327;28;20564;-67
2023/12/03 08:22:13;;;;;;;20.83;11.30;;;;;;;;;;10458622;28;20219;-67
2023/12/03 08:27:13;;;;;;;20.00;11.67;;;;;;;;;;10459148;28;20222;-67
2023/12/03 08:32:13;;;;;;;18.27;10.83;;;;;;;;;;10461216;28;20247;-67
2023/12/03 08:37:13;;;;;;;14.40;6.60;;;;;;;;;;10458258;28;20200;-67
2023/12/03 08:42:15;;;;;;;16.13;9.67;;;;;;;;;;10458297;28;20220;-67
2023/12/03 08:47:15;;;;;;;15.60;9.47;;;;;;;;;;10457558;28;20869;-67
2023/12/03 08:52:15;;;;;;;14.07;8.07;;;;;;;;;;10460807;28;20339;-67
2023/12/03 08:57:15;;;;;;;21.77;13.97;;;;;;;;;;10458029;28;20204;-67
2023/12/03 09:02:16;;;;;;;15.77;11.00;;;;;;;;;;10444319;28;20226;-67
2023/12/03 09:07:16;;;;;;;12.90;6.83;;;;;;;;;;10438017;28;20196;-66
2023/12/03 09:12:17;;;;;;;16.50;10.77;;;;;;;;;;10435107;28;20303;-66
2023/12/03 09:17:17;;;;;;;14.83;9.13;;;;;;;;;;10454695;28;20187;-66
2023/12/03 09:22:18;;;;;;;15.63;9.10;;;;;;;;;;10457112;28;20230;-66
2023/12/03 09:27:19;;;;;;;13.80;9.60;;;;;;;;;;10459846;28;20195;-67
2023/12/03 09:32:19;;;;;;;14.67;9.47;;;;;;;;;;10457728;28;20727;-67
2023/12/03 09:37:19;;;;;;;14.73;8.63;;;;;;;;;;10457739;28;20194;-67
2023/12/03 09:42:22;;;;;;;12.70;8.20;;;;;;;;;;10456661;28;20208;-67
2023/12/03 09:47:23;;;;;;;13.93;8.90;;;;;;;;;;10459529;28;20203;-67
2023/12/03 09:52:24;;;;;;;12.93;8.37;;;;;;;;;;10456112;28;20223;-67
2023/12/03 09:57:25;;;;;;;10.67;7.53;;;;;;;;;;10455861;28;20192;-67
2023/12/03 10:02:28;;;;;;;12.10;7.97;;;;;;;;;;10455791;28;20211;-66
2023/12/03 10:07:29;;;;;;;12.83;8.60;;;;;;;;;;10458363;28;20637;-67
2023/12/03 10:12:38;;;;;;;10.07;6.20;;;;;;;;;;10454989;28;20211;-67
2023/12/03 10:17:39;;;;;;;16.33;9.23;;;;;;;;;;10454598;28;20198;-67
2023/12/03 10:22:39;;;;;;;12.20;7.10;;;;;;;;;;10455447;28;20603;-67
2023/12/03 10:27:39;;;;;;;16.57;10.67;;;;;;;;;;10456186;28;20597;-66
2023/12/03 10:32:40;;;;;;;15.30;10.47;;;;;;;;;;10453816;28;20251;-67
2023/12/03 10:37:40;;;;;;;14.33;8.63;;;;;;;;;;10453357;28;20184;-67
2023/12/03 10:42:40;;;;;;;13.80;9.33;;;;;;;;;;10457361;28;20208;-66
2023/12/03 10:47:42;;;;;;;15.27;9.53;;;;;;;;;;10453914;28;20246;-67
2023/12/03 10:52:42;;;;;;;15.83;10.23;;;;;;;;;;10453777;28;20703;-66
2023/12/03 10:58:02;;;;;;;14.50;9.40;;;;;;;;;;10453333;28;20283;-67
2023/12/03 11:03:08;;;;;;;15.90;10.00;;;;;;;;;;10452899;28;21004;-67
2023/12/03 11:08:09;;;;;;;17.70;11.00;;;;;;;;;;10453050;28;20188;-67
2023/12/03 11:13:11;;;;;;;15.67;10.43;;;;;;;;;;10453296;28;20315;-67
2023/12/03 11:18:12;;;;;;;16.73;9.87;;;;;;;;;;10452736;28;20661;-66
2023/12/03 11:23:30;;;;;;;13.93;9.10;;;;;;;;;;10456079;28;20741;-67
2023/12/03 11:28:31;;;;;;;16.33;10.43;;;;;;;;;;10452126;28;20571;-66
2023/12/03 11:33:31;;;;;;;20.77;12.83;;;;;;;;;;10451899;28;20550;-67
2023/12/03 11:38:32;;;;;;;21.33;11.67;;;;;;;;;;10452169;28;20219;-67
2023/12/03 11:43:32;;;;;;;18.67;11.00;;;;;;;;;;10455000;28;20219;-67
2023/12/03 11:48:34;;;;;;;17.87;11.00;;;;;;;;;;10451583;28;20639;-66
2023/12/03 11:53:38;;;;;;;19.83;12.03;;;;;;;;;;10451676;28;20215;-67
2023/12/03 11:58:38;;;;;;;18.77;12.20;;;;;;;;;;10454670;28;20251;-67
2023/12/03 12:03:38;;;;;;;18.13;11.73;;;;;;;;;;10451211;28;20259;-67
2023/12/03 12:08:38;;;;;;;20.60;11.75;;;;;;;;;;10451489;28;20205;-67
2023/12/03 12:13:39;;;;;;;17.93;11.40;;;;;;;;;;10450828;28;20212;-67
2023/12/03 12:18:39;;;;;;;18.10;11.00;;;;;;;;;;10454526;28;20795;-66
2023/12/03 12:23:42;;;;;;;16.93;9.10;;;;;;;;;;10450927;28;20223;-67
2023/12/03 12:28:43;;;;;;;19.30;10.97;;;;;;;;;;10450907;28;20196;-67
2023/12/03 12:33:43;;;;;;;15.13;10.10;;;;;;;;;;10450394;28;20241;-67
2023/12/03 12:38:43;;;;;;;16.47;10.43;;;;;;;;;;10453861;28;20438;-67
2023/12/03 12:43:56;;;;;;;17.10;10.80;;;;;;;;;;10449882;28;20207;-66
2023/12/03 12:49:18;;;;;;;16.67;10.10;;;;;;;;;;10445047;28;20226;-67
2023/12/03 12:54:18;;;;;;;17.10;10.47;;;;;;;;;;10448414;28;20224;-67
2023/12/03 12:59:19;;;;;;;16.73;10.83;;;;;;;;;;10449754;28;20211;-67
2023/12/03 13:04:19;;;;;;;17.30;10.47;;;;;;;;;;10443744;28;20199;-67
2023/12/03 13:09:19;;;;;;;16.80;10.50;;;;;;;;;;10421104;23;20682;-65
2023/12/03 13:14:19;;;;;;;17.50;10.95;;;;;;;;;;10372632;28;20487;-65
2023/12/03 13:19:20;;;;;;;17.13;11.07;;;;;;;;;;10374130;28;20228;-66
2023/12/03 13:24:20;;;;;;;15.87;10.80;;;;;;;;;;10374288;28;20473;-65
2023/12/03 13:29:21;;;;;;;17.80;10.80;;;;;;;;;;10377531;28;20216;-65
2023/12/03 13:34:21;;;;;;;17.80;11.00;;;;;;;;;;10373458;28;20279;-66
2023/12/03 13:39:21;;;;;;;16.90;10.23;;;;;;;;;;10373443;28;20584;-65
2023/12/03 13:44:22;;;;;;;18.77;11.33;;;;;;;;;;10372905;28;20692;-65
2023/12/03 13:49:22;;;;;;;17.03;9.70;;;;;;;;;;10372618;28;20212;-65
2023/12/03 13:54:22;;;;;;;18.27;11.43;;;;;;;;;;10372324;28;20391;-67
2023/12/03 13:59:22;;;;;;;15.40;9.57;;;;;;;;;;10372203;28;20209;-67
2023/12/03 14:04:22;;;;;;;16.97;11.10;;;;;;;;;;10375353;28;20563;-67
2023/12/03 14:09:23;;;;;;;16.30;10.33;;;;;;;;;;10371785;28;20240;-67
2023/12/03 14:14:23;;;;;;;15.93;9.93;;;;;;;;;;10370679;28;20723;-67
2023/12/03 14:19:23;;;;;;;19.30;10.97;;;;;;;;;;10372607;28;20216;-68
2023/12/03 14:24:23;;;;;;;15.67;10.53;;;;;;;;;;10375714;28;20300;-67
2023/12/03 14:29:23;;;;;;;18.13;10.97;;;;;;;;;;10372347;28;20213;-68
2023/12/03 14:34:24;;;;;;;16.47;10.60;;;;;;;;;;10371911;28;20220;-67
2023/12/03 14:39:24;;;;;;;17.40;11.03;;;;;;;;;;10381180;28;20258;-67
2023/12/03 14:44:24;;;;;;;20.07;12.47;;;;;;;;;;10384398;28;20196;-68
2023/12/03 14:49:24;;;;;;;20.27;12.67;;;;;;;;;;10369238;28;20336;-67
2023/12/03 14:54:24;;;;;;;19.03;11.30;;;;;;;;;;10369689;28;20221;-67
2023/12/03 14:59:25;;;;;;;22.40;12.90;;;;;;;;;;10369429;28;20275;-67
2023/12/03 15:04:26;;;;;;;20.30;12.70;;;;;;;;;;10372151;28;20190;-67
2023/12/03 15:09:26;;;;;;;21.33;14.03;;;;;;;;;;10370235;28;20339;-68
2023/12/03 15:14:26;;;;;;;20.77;12.48;;;;;;;;;;10370972;28;20647;-67
2023/12/03 15:19:27;;;;;;;20.40;12.30;;;;;;;;;;10373351;28;20204;-67
2023/12/03 15:24:27;;;;;;;22.20;14.27;;;;;;;;;;10382940;28;20251;-66
2023/12/03 15:29:27;;;;;;;19.73;12.67;;;;;;;;;;10377057;28;20209;-67
2023/12/03 15:34:27;;;;;;;20.67;13.17;;;;;;;;;;10370448;28;20347;-68
2023/12/03 15:39:27;;;;;;;20.57;13.43;;;;;;;;;;10369168;28;20208;-67
2023/12/03 15:44:28;;;;;;;21.23;12.83;;;;;;;;;;10369586;28;20193;-66
2023/12/03 15:49:28;;;;;;;20.77;12.00;;;;;;;;;;10372206;28;20205;-66
2023/12/03 15:54:28;;;;;;;19.43;12.13;;;;;;;;;;10370159;28;20217;-68
2023/12/03 15:59:28;;;;;;;21.40;13.03;;;;;;;;;;10370613;28;20205;-68
2023/12/03 16:04:28;;;;;;;25.93;12.30;;;;;;;;;;10369012;28;20193;-68
2023/12/03 16:09:28;;;;;;;19.37;12.87;;;;;;;;;;10376279;28;20236;-66
2023/12/03 16:14:29;;;;;;;23.73;14.13;;;;;;;;;;10368932;28;20217;-67
2023/12/03 16:19:29;;;;;;;22.23;13.30;;;;;;;;;;10369088;28;20213;-67
2023/12/03 16:24:29;;;;;;;21.43;13.07;;;;;;;;;;10369311;28;20239;-67
2023/12/03 16:29:29;;;;;;;28.77;15.50;;;;;;;;;;10376254;28;20717;-67
2023/12/03 16:34:30;;;;;;;25.57;15.10;;;;;;;;;;10370031;28;20217;-67
2023/12/03 16:39:31;;;;;;;25.40;15.37;;;;;;;;;;10380312;28;20493;-67
2023/12/03 16:44:31;;;;;;;29.13;16.23;;;;;;;;;;10381000;28;20856;-66
2023/12/03 16:49:32;;;;;;;28.73;16.13;;;;;;;;;;10379435;28;20212;-67
2023/12/03 16:54:32;;;;;;;28.97;16.80;;;;;;;;;;10376346;28;20679;-67
2023/12/03 16:59:32;;;;;;;34.07;21.47;;;;;;;;;;10372736;28;20212;-67
2023/12/03 17:04:32;;;;;;;26.87;16.33;;;;;;;;;;10382693;28;20201;-67
2023/12/03 17:09:34;;;;;;;28.37;16.27;;;;;;;;;;10373526;28;20225;-67
2023/12/03 17:14:34;;;;;;;31.97;17.60;;;;;;;;;;10372336;28;20225;-68
2023/12/03 17:19:34;;;;;;;30.53;17.00;;;;;;;;;;10372792;28;20652;-67
2023/12/03 17:24:34;;;;;;;31.20;17.67;;;;;;;;;;10379597;28;20185;-67
2023/12/03 17:29:35;;;;;;;31.00;18.53;;;;;;;;;;10372797;28;20595;-68
2023/12/03 17:34:35;;;;;;;31.73;18.17;;;;;;;;;;10372461;28;20205;-67
2023/12/03 17:39:36;;;;;;;35.43;20.47;;;;;;;;;;10373596;28;20211;-68
2023/12/03 17:44:37;;;;;;;37.03;20.40;;;;;;;;;;10378850;28;20196;-66
2023/12/03 17:49:37;;;;;;;32.67;19.57;;;;;;;;;;10372636;28;20215;-67
2023/12/03 17:54:37;;;;;;;36.67;19.93;;;;;;;;;;10371949;28;20228;-67
2023/12/03 17:59:39;;;;;;;37.00;20.93;;;;;;;;;;10371744;28;20539;-67
2023/12/03 18:04:39;;;;;;;42.57;22.47;;;;;;;;;;10371168;28;20443;-67
2023/12/03 18:09:41;;;;;;;39.80;19.97;;;;;;;;;;10338316;28;983880;-68
2023/12/03 18:14:42;;;;;;;39.13;19.17;;;;;;;;;;10373470;28;20225;-66
2023/12/03 18:19:42;;;;;;;39.13;19.90;;;;;;;;;;10377797;28;20262;-67
2023/12/03 18:24:42;;;;;;;35.30;20.00;;;;;;;;;;10375160;28;20272;-67
2023/12/03 18:29:42;;;;;;;37.67;19.23;;;;;;;;;;10372217;28;20224;-67
2023/12/03 18:34:43;;;;;;;39.20;20.23;;;;;;;;;;10371961;28;20262;-68
2023/12/03 18:39:43;;;;;;;38.53;19.60;;;;;;;;;;10378945;28;20209;-67
2023/12/03 18:44:43;;;;;;;35.60;19.00;;;;;;;;;;10371051;28;20204;-67
2023/12/03 18:49:43;;;;;;;32.87;16.77;;;;;;;;;;10370701;28;20217;-67
2023/12/03 18:54:43;;;;;;;30.73;17.10;;;;;;;;;;10370557;28;20304;-67
2023/12/03 18:59:43;;;;;;;27.77;15.07;;;;;;;;;;10369641;28;20579;-65
2023/12/03 19:04:44;;;;;;;26.27;15.07;;;;;;;;;;10370475;28;20198;-66
2023/12/03 19:09:44;;;;;;;25.00;14.33;;;;;;;;;;10370953;28;20237;-65
2023/12/03 19:14:44;;;;;;;25.47;14.40;;;;;;;;;;10371014;28;20213;-65
2023/12/03 19:19:44;;;;;;;31.53;15.33;;;;;;;;;;10377301;28;20209;-66
2023/12/03 19:24:44;;;;;;;28.17;15.57;;;;;;;;;;10370523;28;20196;-66
2023/12/03 19:29:44;;;;;;;27.87;15.23;;;;;;;;;;10370380;28;20781;-66
2023/12/03 19:34:45;;;;;;;29.07;14.63;;;;;;;;;;10370484;28;20239;-66
2023/12/03 19:39:45;;;;;;;25.63;13.77;;;;;;;;;;10376695;28;20288;-66
2023/12/03 19:44:45;;;;;;;24.03;13.13;;;;;;;;;;10377544;28;20189;-66
2023/12/03 19:49:45;;;;;;;25.70;14.97;;;;;;;;;;10380562;28;20204;-66
2023/12/03 19:54:46;;;;;;;27.80;14.90;;;;;;;;;;10374727;28;20220;-67
2023/12/03 19:59:46;;;;;;;28.47;15.97;;;;;;;;;;10367851;28;20201;-66
2023/12/03 20:04:46;;;;;;;29.10;14.53;;;;;;;;;;10369139;28;20577;-65
2023/12/03 20:09:47;;;;;;;32.37;17.13;;;;;;;;;;10368186;28;20518;-66
2023/12/03 20:14:47;;;;;;;30.27;15.77;;;;;;;;;;10375450;28;20221;-67
2023/12/03 20:19:47;;;;;;;32.30;16.00;;;;;;;;;;10369145;28;20354;-66
2023/12/03 20:24:47;;;;;;;28.27;14.47;;;;;;;;;;10368825;28;20723;-66
2023/12/03 20:29:47;;;;;;;28.55;14.88;;;;;;;;;;10368291;28;20309;-65
2023/12/03 20:34:47;;;;;;;23.47;11.93;;;;;;;;;;10374998;28;20262;-66
2023/12/03 20:39:48;;;;;;;24.37;12.77;;;;;;;;;;10367950;28;20218;-66
2023/12/03 20:44:48;;;;;;;23.20;12.17;;;;;;;;;;10367834;28;20256;-67
2023/12/03 20:49:48;;;;;;;28.97;14.27;;;;;;;;;;10367371;28;20303;-65
2023/12/03 20:54:48;;;;;;;24.67;13.03;;;;;;;;;;10375116;28;20219;-66
2023/12/03 20:59:48;;;;;;;25.10;12.73;;;;;;;;;;10368923;28;20204;-67
2023/12/03 21:04:49;;;;;;;24.37;11.77;;;;;;;;;;10368591;28;20916;-68
2023/12/03 21:09:49;;;;;;;24.83;12.40;;;;;;;;;;10368190;28;20339;-67
2023/12/03 21:14:49;;;;;;;21.50;11.33;;;;;;;;;;10373859;28;20487;-70
2023/12/03 21:19:49;;;;;;;21.27;11.63;;;;;;;;;;10367605;28;20214;-67
2023/12/03 21:24:49;;;;;;;18.57;11.33;;;;;;;;;;10374932;28;20197;-71
2023/12/03 21:29:49;;;;;;;21.93;12.10;;;;;;;;;;10380846;28;20215;-68
2023/12/03 21:34:49;;;;;;;21.93;10.77;;;;;;;;;;10375793;28;20236;-68
2023/12/03 21:39:50;;;;;;;28.80;11.97;;;;;;;;;;10374916;28;20759;-69
2023/12/03 21:44:50;;;;;;;21.50;9.90;;;;;;;;;;10375292;28;20564;-68
2023/12/03 21:49:51;;;;;;;16.43;8.67;;;;;;;;;;10381105;28;20350;-68
2023/12/03 21:54:51;;;;;;;15.77;8.70;;;;;;;;;;10373922;28;20233;-68
2023/12/03 21:59:52;;;;;;;18.50;9.40;;;;;;;;;;10374276;28;20251;-69
2023/12/03 22:04:52;;;;;;;21.20;10.17;;;;;;;;;;10373206;28;20951;-68
2023/12/03 22:09:52;;;;;;;19.43;9.53;;;;;;;;;;10379179;28;20240;-68
2023/12/03 22:14:52;;;;;;;15.90;8.27;;;;;;;;;;10373467;28;20227;-67
2023/12/03 22:19:53;;;;;;;16.07;8.97;;;;;;;;;;10373035;28;20984;-69
2023/12/03 22:24:53;;;;;;;17.50;7.43;;;;;;;;;;10373233;28;20193;-68
2023/12/03 22:29:53;;;;;;;14.80;7.97;;;;;;;;;;10379375;28;20797;-68
2023/12/03 22:34:53;;;;;;;20.63;9.40;;;;;;;;;;10371908;28;20220;-70
2023/12/03 22:39:53;;;;;;;18.17;9.37;;;;;;;;;;10372361;28;20259;-68
2023/12/03 22:44:54;;;;;;;19.97;8.33;;;;;;;;;;10372549;28;20247;-69
2023/12/03 22:49:54;;;;;;;17.67;8.13;;;;;;;;;;10378753;28;20904;-68
2023/12/03 22:54:54;;;;;;;19.37;9.20;;;;;;;;;;10371507;28;20227;-70
2023/12/03 22:59:54;;;;;;;14.63;8.30;;;;;;;;;;10371897;28;20230;-67
2023/12/03 23:04:54;;;;;;;12.97;6.27;;;;;;;;;;10377859;28;20201;-68
2023/12/03 23:09:54;;;;;;;16.60;7.88;;;;;;;;;;10371458;28;20274;-67
2023/12/03 23:14:55;;;;;;;13.97;8.03;;;;;;;;;;10371201;28;20248;-68
2023/12/03 23:19:55;;;;;;;14.03;7.17;;;;;;;;;;10370942;28;20295;-69
2023/12/03 23:24:55;;;;;;;21.07;8.03;;;;;;;;;;10377670;28;20197;-68
2023/12/03 23:29:55;;;;;;;15.00;7.10;;;;;;;;;;10370500;28;20215;-68
2023/12/03 23:34:56;;;;;;;14.10;7.30;;;;;;;;;;10370490;28;20221;-68
2023/12/03 23:39:56;;;;;;;12.17;6.90;;;;;;;;;;10370263;28;20256;-68
2023/12/03 23:44:56;;;;;;;14.57;7.47;;;;;;;;;;10376862;28;20205;-69
2023/12/03 23:49:56;;;;;;;11.83;5.90;;;;;;;;;;10370013;28;20272;-68
2023/12/03 23:54:56;;;;;;;12.80;5.90;;;;;;;;;;10370063;28;20696;-68
2023/12/03 23:59:56;;;;;;;13.60;6.43;;;;;;;;;;10369637;28;20580;-68
